Time;durP1;ratioP1;P1;durP2;ratioP2;P2;SDS_P1;SDS_P2;PMS_P1;PMS_P2;Temp;Humidity;BMP_temperature;BMP_pressure;BME280_temperature;BME280_humidity;BME280_pressure;Samples;Min_cycle;Max_cycle;Signal;HPM_P1;HPM_P2
2021/09/06 00:00:57;;;;;;;16.63;12.67;;;18.70;99.90;;;;;;5081528;28;20165;-85
2021/09/06 00:03:25;;;;;;;20.07;13.50;;;18.70;99.90;;;;;;5099259;28;20295;-85
2021/09/06 00:05:52;;;;;;;15.70;12.40;;;18.70;99.90;;;;;;5099318;28;20826;-85
2021/09/06 00:08:18;;;;;;;15.87;12.17;;;18.70;99.90;;;;;;5099327;28;20206;-84
2021/09/06 00:10:46;;;;;;;16.40;11.80;;;18.70;99.90;;;;;;5099138;28;20845;-85
2021/09/06 00:13:17;;;;;;;15.20;13.07;;;18.70;99.90;;;;;;5099170;28;20178;-85
2021/09/06 00:15:43;;;;;;;15.20;12.07;;;18.70;99.90;;;;;;5099311;28;20401;-84
2021/09/06 00:18:10;;;;;;;19.23;12.07;;;18.60;99.90;;;;;;5098774;28;20449;-85
2021/09/06 00:20:38;;;;;;;15.97;12.60;;;18.60;99.90;;;;;;5101992;28;20930;-85
2021/09/06 00:23:04;;;;;;;17.20;11.20;;;18.60;99.90;;;;;;5103704;28;20396;-85
2021/09/06 00:25:30;;;;;;;18.60;14.03;;;18.60;99.90;;;;;;5103126;28;20478;-85
2021/09/06 00:27:56;;;;;;;14.27;12.33;;;18.60;99.90;;;;;;5102945;28;20396;-85
2021/09/06 00:30:22;;;;;;;15.67;12.43;;;18.60;99.90;;;;;;5102980;28;20162;-84
2021/09/06 00:32:47;;;;;;;17.00;13.27;;;18.40;99.90;;;;;;5103119;28;20171;-84
2021/09/06 00:35:13;;;;;;;15.60;13.20;;;18.50;99.90;;;;;;5103719;28;20572;-84
2021/09/06 00:37:39;;;;;;;22.17;13.03;;;18.40;99.90;;;;;;5102725;28;20226;-85
2021/09/06 00:40:07;;;;;;;17.20;13.97;;;18.40;99.90;;;;;;5103101;28;20473;-84
2021/09/06 00:42:33;;;;;;;12.67;11.13;;;18.40;99.90;;;;;;5085170;28;20151;-85
2021/09/06 00:44:59;;;;;;;16.83;14.03;;;18.30;99.90;;;;;;5102101;28;20480;-85
2021/09/06 00:47:25;;;;;;;18.47;12.50;;;18.30;99.90;;;;;;5084833;28;20159;-84
2021/09/06 00:49:51;;;;;;;16.70;12.63;;;18.30;99.90;;;;;;5102518;28;20189;-85
2021/09/06 00:52:17;;;;;;;18.13;13.20;;;18.30;99.90;;;;;;5102778;28;20186;-84
2021/09/06 00:54:43;;;;;;;28.67;14.90;;;18.20;99.90;;;;;;5102375;28;20568;-84
2021/09/06 00:57:09;;;;;;;16.00;11.63;;;18.00;99.90;;;;;;5083705;28;20199;-84
2021/09/06 00:59:34;;;;;;;14.43;12.43;;;18.00;99.90;;;;;;5102307;28;20420;-84
2021/09/06 01:02:00;;;;;;;17.57;13.43;;;18.00;99.90;;;;;;5102571;28;20155;-84
2021/09/06 01:04:26;;;;;;;18.50;12.07;;;17.90;99.90;;;;;;5102788;28;20183;-84
2021/09/06 01:06:52;;;;;;;16.20;11.83;;;18.00;99.90;;;;;;5084801;28;20401;-84
2021/09/06 01:09:18;;;;;;;18.20;13.07;;;17.90;99.90;;;;;;5085282;28;20601;-84
2021/09/06 01:11:43;;;;;;;15.63;11.93;;;17.40;99.90;;;;;;5102969;28;20588;-84
2021/09/06 01:14:09;;;;;;;13.63;11.03;;;16.60;99.90;;;;;;5101989;28;20163;-85
2021/09/06 01:16:35;;;;;;;15.00;10.60;;;16.50;99.90;;;;;;5102775;28;20509;-85
2021/09/06 01:19:01;;;;;;;13.77;10.40;;;16.40;99.90;;;;;;5101969;28;20155;-84
2021/09/06 01:21:27;;;;;;;13.30;11.87;;;16.40;99.90;;;;;;5102102;28;20155;-84
2021/09/06 01:23:53;;;;;;;13.70;10.30;;;16.20;99.90;;;;;;5102721;28;20506;-85
2021/09/06 01:26:18;;;;;;;11.77;10.57;;;16.20;99.90;;;;;;5102427;28;20154;-85
2021/09/06 01:28:44;;;;;;;11.37;10.27;;;16.10;99.90;;;;;;5101892;28;20159;-85
2021/09/06 01:31:10;;;;;;;10.60;8.40;;;16.00;99.90;;;;;;5101209;28;20163;-84
2021/09/06 01:33:36;;;;;;;15.03;9.17;;;16.00;99.90;;;;;;5101140;28;20163;-85
2021/09/06 01:36:01;;;;;;;14.00;10.00;;;15.80;99.90;;;;;;5101393;28;20155;-84
2021/09/06 01:38:27;;;;;;;16.50;10.77;;;15.80;99.90;;;;;;5101338;28;20217;-83
2021/09/06 01:40:53;;;;;;;12.00;9.50;;;15.70;99.90;;;;;;5079389;28;20175;-84
2021/09/06 01:43:19;;;;;;;14.93;11.07;;;15.60;99.90;;;;;;5095423;28;20186;-84
2021/09/06 01:45:45;;;;;;;15.13;11.30;;;15.60;99.90;;;;;;5083083;28;20174;-85
2021/09/06 01:48:10;;;;;;;11.00;8.97;;;15.40;99.90;;;;;;5101501;28;20198;-84
2021/09/06 01:50:36;;;;;;;12.27;9.50;;;15.40;99.90;;;;;;5101907;28;20604;-85
2021/09/06 01:53:02;;;;;;;12.00;9.90;;;15.30;99.90;;;;;;5101152;28;20163;-85
2021/09/06 01:55:28;;;;;;;10.97;8.80;;;15.30;99.90;;;;;;5083460;28;20529;-84
2021/09/06 01:57:53;;;;;;;10.00;9.00;;;15.40;99.90;;;;;;5102335;28;20348;-84
2021/09/06 02:00:20;;;;;;;12.80;9.90;;;15.20;99.90;;;;;;5067249;28;20158;-85
2021/09/06 02:02:46;;;;;;;11.63;8.63;;;15.20;99.90;;;;;;5083442;28;20151;-84
2021/09/06 02:05:14;;;;;;;13.73;9.03;;;15.10;99.90;;;;;;5101170;28;20404;-84
2021/09/06 02:07:40;;;;;;;10.63;9.00;;;15.10;99.90;;;;;;5083183;28;20889;-84
2021/09/06 02:10:07;;;;;;;17.40;8.97;;;15.10;99.90;;;;;;5100943;28;20198;-85
2021/09/06 02:12:33;;;;;;;9.60;7.97;;;15.10;99.90;;;;;;5101469;28;20159;-84
2021/09/06 02:14:58;;;;;;;13.53;9.80;;;15.00;99.90;;;;;;5102073;28;20454;-84
2021/09/06 02:17:24;;;;;;;11.00;9.33;;;15.10;99.90;;;;;;5101566;28;20212;-84
2021/09/06 02:19:50;;;;;;;14.73;9.07;;;15.00;99.90;;;;;;5101611;28;20486;-84
2021/09/06 02:22:17;;;;;;;13.17;10.50;;;15.00;99.90;;;;;;5101178;28;20155;-85
2021/09/06 02:24:43;;;;;;;11.70;9.67;;;15.00;99.90;;;;;;5101255;28;20155;-85
2021/09/06 02:27:09;;;;;;;11.53;9.00;;;15.00;99.90;;;;;;5100521;28;20393;-84
2021/09/06 02:29:35;;;;;;;10.00;7.63;;;14.70;99.90;;;;;;5083760;28;20431;-84
2021/09/06 02:32:01;;;;;;;11.40;9.53;;;14.60;99.90;;;;;;5101126;28;20166;-84
2021/09/06 02:34:26;;;;;;;13.70;9.10;;;14.70;99.90;;;;;;5101261;28;20359;-84
2021/09/06 02:36:53;;;;;;;15.03;9.43;;;14.70;99.90;;;;;;5101692;28;20278;-84
2021/09/06 02:39:19;;;;;;;10.23;9.07;;;14.60;99.90;;;;;;5102533;28;20218;-85
2021/09/06 02:41:45;;;;;;;14.23;10.17;;;14.60;99.90;;;;;;5102232;28;20857;-85
2021/09/06 02:44:10;;;;;;;14.47;8.23;;;14.50;99.90;;;;;;5103289;28;20159;-85
2021/09/06 02:46:36;;;;;;;9.30;8.10;;;14.40;99.90;;;;;;5106000;28;20234;-84
2021/09/06 02:49:02;;;;;;;13.00;8.40;;;14.40;99.90;;;;;;5088403;28;20192;-84
2021/09/06 02:51:28;;;;;;;15.43;8.37;;;14.50;99.90;;;;;;5100636;28;20583;-84
2021/09/06 02:53:54;;;;;;;9.73;8.67;;;14.50;99.90;;;;;;5100206;28;20219;-84
2021/09/06 02:56:21;;;;;;;11.20;8.40;;;14.40;99.90;;;;;;5100181;28;20155;-84
2021/09/06 02:58:46;;;;;;;10.83;8.10;;;14.30;99.90;;;;;;5063817;28;20424;-85
2021/09/06 03:01:12;;;;;;;11.63;8.30;;;14.20;99.90;;;;;;5100597;28;20480;-84
2021/09/06 03:03:38;;;;;;;9.23;7.87;;;14.10;99.90;;;;;;5100274;28;20158;-84
2021/09/06 03:06:04;;;;;;;10.17;9.10;;;14.00;99.90;;;;;;5100468;28;20163;-84
2021/09/06 03:08:29;;;;;;;12.13;9.20;;;14.00;99.90;;;;;;5100014;28;20631;-84
2021/09/06 03:10:55;;;;;;;11.13;8.17;;;14.10;99.90;;;;;;5099730;28;20186;-84
2021/09/06 03:13:22;;;;;;;14.47;8.97;;;14.20;99.90;;;;;;5099675;28;20159;-84
2021/09/06 03:15:47;;;;;;;12.10;8.70;;;14.20;99.90;;;;;;5100100;28;20163;-84
2021/09/06 03:18:13;;;;;;;12.03;9.07;;;14.20;99.90;;;;;;5082290;28;20517;-84
2021/09/06 03:20:39;;;;;;;9.80;8.70;;;14.20;99.90;;;;;;5099742;28;20183;-84
2021/09/06 03:23:05;;;;;;;19.23;8.77;;;14.10;99.90;;;;;;5099829;28;20162;-84
2021/09/06 03:25:31;;;;;;;10.73;7.40;;;14.00;99.90;;;;;;5099215;28;20166;-85
2021/09/06 03:27:56;;;;;;;16.63;9.73;;;13.90;99.90;;;;;;5099394;28;20460;-84
2021/09/06 03:30:22;;;;;;;11.57;9.43;;;14.00;99.90;;;;;;5100089;28;20154;-84
2021/09/06 03:32:48;;;;;;;12.80;9.60;;;13.90;99.90;;;;;;5081456;28;20155;-84
2021/09/06 03:35:14;;;;;;;11.10;8.20;;;13.90;99.90;;;;;;5100121;28;20166;-84
2021/09/06 03:37:41;;;;;;;12.73;9.70;;;13.90;99.90;;;;;;5090239;28;20248;-84
2021/09/06 03:40:10;;;;;;;11.23;8.47;;;13.70;99.90;;;;;;5108971;28;20397;-84
2021/09/06 03:42:36;;;;;;;9.13;7.57;;;13.70;99.90;;;;;;5076498;28;20452;-84
2021/09/06 03:45:23;;;;;;;11.03;8.40;;;13.80;99.90;;;;;;5113323;28;20461;-84
2021/09/06 03:47:49;;;;;;;9.70;8.10;;;13.70;99.90;;;;;;5028757;28;20427;-84
2021/09/06 03:50:18;;;;;;;10.50;7.83;;;13.60;99.90;;;;;;5044329;28;20398;-84
2021/09/06 03:52:43;;;;;;;12.97;9.60;;;13.80;99.90;;;;;;5042987;28;20196;-84
2021/09/06 03:55:10;;;;;;;17.60;10.07;;;13.90;99.90;;;;;;5043889;28;20924;-84
2021/09/06 03:57:36;;;;;;;20.90;9.33;;;13.80;99.90;;;;;;5011074;28;20216;-84
2021/09/06 04:00:03;;;;;;;13.80;10.20;;;13.90;99.90;;;;;;5027806;28;20403;-85
2021/09/06 04:02:29;;;;;;;10.53;8.40;;;14.00;99.90;;;;;;5034359;28;20422;-84
2021/09/06 04:04:59;;;;;;;11.90;7.80;;;14.00;99.90;;;;;;5050730;28;20415;-84
2021/09/06 04:07:25;;;;;;;11.00;8.20;;;14.10;99.90;;;;;;4985749;28;20929;-85
2021/09/06 04:09:51;;;;;;;11.10;8.30;;;14.10;99.90;;;;;;5003727;28;20433;-84
2021/09/06 04:12:17;;;;;;;12.10;9.50;;;14.10;99.90;;;;;;5010220;28;20409;-83
2021/09/06 04:14:43;;;;;;;8.93;8.03;;;14.10;99.90;;;;;;5012015;28;20412;-84
2021/09/06 04:17:09;;;;;;;9.43;7.97;;;14.00;99.90;;;;;;5012963;28;20205;-84
2021/09/06 04:19:35;;;;;;;9.70;7.90;;;13.90;99.90;;;;;;4986181;28;20222;-84
2021/09/06 04:22:01;;;;;;;10.43;9.37;;;13.90;99.90;;;;;;5002393;28;20507;-84
2021/09/06 04:24:27;;;;;;;11.10;8.63;;;13.90;99.90;;;;;;5002171;28;20199;-84
2021/09/06 04:26:54;;;;;;;9.80;8.17;;;13.90;99.90;;;;;;5001924;28;20521;-84
2021/09/06 04:29:20;;;;;;;11.10;8.20;;;14.00;99.90;;;;;;5002082;28;20256;-84
2021/09/06 04:31:47;;;;;;;9.73;7.63;;;13.80;99.90;;;;;;5001184;28;20409;-85
2021/09/06 04:34:13;;;;;;;9.53;7.60;;;13.60;99.90;;;;;;5002143;28;20460;-84
2021/09/06 04:36:38;;;;;;;7.80;7.00;;;13.70;99.90;;;;;;5001636;28;20401;-84
2021/09/06 04:39:04;;;;;;;15.47;9.60;;;13.50;99.90;;;;;;5033424;28;20517;-85
2021/09/06 04:41:30;;;;;;;12.57;9.03;;;13.60;99.90;;;;;;5040572;28;20165;-84
2021/09/06 04:43:56;;;;;;;12.70;9.60;;;13.50;99.90;;;;;;5053593;28;20417;-83
2021/09/06 04:46:22;;;;;;;11.43;9.17;;;13.50;99.90;;;;;;5082252;28;20163;-84
2021/09/06 04:48:48;;;;;;;10.30;9.27;;;13.40;99.90;;;;;;5082119;28;20402;-84
2021/09/06 04:51:14;;;;;;;9.97;8.97;;;13.50;99.90;;;;;;5082721;28;20167;-84
2021/09/06 04:53:41;;;;;;;11.57;10.17;;;13.60;99.90;;;;;;5082658;28;20488;-84
2021/09/06 04:56:07;;;;;;;11.77;9.87;;;13.40;99.90;;;;;;5082004;28;20163;-85
2021/09/06 04:58:33;;;;;;;15.30;11.63;;;13.50;99.90;;;;;;5082668;28;20510;-84
2021/09/06 05:00:59;;;;;;;13.50;10.17;;;13.50;99.90;;;;;;5084545;28;20398;-84
2021/09/06 05:03:25;;;;;;;15.27;11.43;;;13.70;99.90;;;;;;5085047;28;20160;-84
2021/09/06 05:05:51;;;;;;;14.27;10.20;;;13.80;99.90;;;;;;5084460;28;20578;-84
2021/09/06 05:08:17;;;;;;;16.03;10.60;;;13.90;99.90;;;;;;5082431;28;20211;-84
2021/09/06 05:10:42;;;;;;;11.87;9.20;;;13.90;99.90;;;;;;5080827;28;20507;-84
2021/09/06 05:13:08;;;;;;;16.40;10.23;;;14.20;99.90;;;;;;5083466;28;20191;-86
2021/09/06 05:15:34;;;;;;;15.30;11.90;;;14.10;99.90;;;;;;5080902;28;20190;-85
2021/09/06 05:18:00;;;;;;;20.87;13.67;;;14.50;99.90;;;;;;5080334;28;20187;-85
2021/09/06 05:20:26;;;;;;;20.80;13.53;;;14.80;99.90;;;;;;5079749;28;20215;-84
2021/09/06 05:22:52;;;;;;;20.60;13.80;;;15.00;99.90;;;;;;5066813;28;20178;-85
2021/09/06 05:25:18;;;;;;;14.03;12.60;;;15.20;99.90;;;;;;5062128;28;20198;-84
2021/09/06 05:28:06;;;;;;;19.77;13.33;;;15.40;99.90;;;;;;5072962;28;20821;-84
2021/09/06 05:30:32;;;;;;;21.50;14.90;;;15.40;99.90;;;;;;4962406;29;20195;-84
2021/09/06 05:33:00;;;;;;;25.40;16.20;;;15.50;99.90;;;;;;4962470;29;20411;-84
2021/09/06 05:35:25;;;;;;;14.00;10.90;;;15.40;99.90;;;;;;4946443;29;20183;-85
2021/09/06 05:37:51;;;;;;;26.00;15.10;;;15.20;99.90;;;;;;4961523;29;20538;-84
2021/09/06 05:40:17;;;;;;;27.20;14.80;;;15.50;99.90;;;;;;4949743;28;20188;-84
2021/09/06 05:42:43;;;;;;;21.17;14.63;;;15.60;99.90;;;;;;4979981;28;20186;-85
2021/09/06 05:45:09;;;;;;;25.97;15.70;;;15.40;99.90;;;;;;4999891;28;20181;-85
2021/09/06 05:47:35;;;;;;;18.87;14.77;;;15.60;99.90;;;;;;5020351;28;20232;-85
2021/09/06 05:50:01;;;;;;;31.57;14.53;;;15.70;99.90;;;;;;5003682;28;20446;-85
2021/09/06 05:52:27;;;;;;;21.30;14.77;;;15.80;99.90;;;;;;4981129;28;20291;-85
2021/09/06 05:54:52;;;;;;;12.00;10.00;;;15.70;99.90;;;;;;4964747;28;20182;-84
2021/09/06 05:57:18;;;;;;;13.37;10.03;;;14.90;99.90;;;;;;4981626;28;20734;-84
2021/09/06 05:59:46;;;;;;;15.20;10.57;;;14.70;99.90;;;;;;4997233;28;20237;-84
2021/09/06 06:02:15;;;;;;;14.70;9.73;;;14.70;99.90;;;;;;5012328;28;20436;-84
2021/09/06 06:04:41;;;;;;;12.70;10.73;;;14.40;99.90;;;;;;5062550;28;20422;-85
2021/09/06 06:07:11;;;;;;;14.87;9.53;;;14.60;99.90;;;;;;5062300;28;20300;-85
2021/09/06 06:09:36;;;;;;;15.17;10.10;;;14.70;99.90;;;;;;5049361;28;20283;-84
2021/09/06 06:12:02;;;;;;;20.83;10.77;;;14.60;99.90;;;;;;5067838;28;20466;-85
2021/09/06 06:14:28;;;;;;;14.10;10.73;;;14.50;99.90;;;;;;5068010;28;20194;-84
2021/09/06 06:16:54;;;;;;;18.30;11.90;;;14.60;99.90;;;;;;5058577;28;20458;-84
2021/09/06 06:19:20;;;;;;;18.37;12.43;;;14.60;99.90;;;;;;5070354;28;20175;-85
2021/09/06 06:21:46;;;;;;;15.80;11.27;;;14.70;99.90;;;;;;5068468;28;20189;-84
2021/09/06 06:24:11;;;;;;;18.70;13.37;;;14.60;99.90;;;;;;5080160;28;20290;-85
2021/09/06 06:26:37;;;;;;;15.03;12.50;;;14.60;99.90;;;;;;5082814;28;20213;-85
2021/09/06 06:29:03;;;;;;;16.60;11.10;;;14.50;99.90;;;;;;5082557;28;20256;-86
2021/09/06 06:31:29;;;;;;;19.57;11.20;;;14.80;99.90;;;;;;5077744;28;20167;-84
2021/09/06 06:33:55;;;;;;;17.50;12.93;;;14.80;99.90;;;;;;5082031;28;20401;-85
2021/09/06 06:36:21;;;;;;;23.47;11.80;;;14.80;99.90;;;;;;5075832;28;20184;-85
2021/09/06 06:38:49;;;;;;;18.27;12.80;;;15.10;99.90;;;;;;5079462;28;20223;-85
2021/09/06 06:41:15;;;;;;;17.87;11.70;;;15.10;99.90;;;;;;5081970;28;20182;-85
2021/09/06 06:43:44;;;;;;;21.43;14.07;;;15.20;99.90;;;;;;5063836;28;20402;-85
2021/09/06 06:46:10;;;;;;;20.00;12.87;;;15.20;99.90;;;;;;5080909;28;20424;-85
2021/09/06 06:48:36;;;;;;;18.83;12.40;;;15.40;99.90;;;;;;5046121;28;20505;-85
2021/09/06 06:51:02;;;;;;;18.80;14.70;;;15.40;99.90;;;;;;5071628;28;20455;-85
2021/09/06 06:53:28;;;;;;;18.03;13.47;;;15.10;99.90;;;;;;5100785;28;20167;-84
2021/09/06 06:55:54;;;;;;;25.83;14.07;;;15.10;99.90;;;;;;5100118;28;20627;-85
2021/09/06 06:58:19;;;;;;;18.40;13.87;;;15.50;99.90;;;;;;5085071;28;20202;-85
2021/09/06 07:00:45;;;;;;;18.57;13.13;;;15.60;99.90;;;;;;5086082;28;20175;-85
2021/09/06 07:03:12;;;;;;;16.07;12.67;;;15.80;99.90;;;;;;5065132;28;20190;-85
2021/09/06 07:05:38;;;;;;;22.77;14.80;;;15.90;99.90;;;;;;5100214;28;20218;-85
2021/09/06 07:08:04;;;;;;;23.10;15.60;;;15.90;99.90;;;;;;5098259;28;20486;-84
2021/09/06 07:10:30;;;;;;;18.07;14.30;;;15.80;99.90;;;;;;5080318;28;20401;-85
2021/09/06 07:12:56;;;;;;;20.60;14.17;;;15.90;99.90;;;;;;5095885;28;20417;-85
2021/09/06 07:15:32;;;;;;;21.20;14.60;;;16.00;99.90;;;;;;5106754;28;20161;-82
2021/09/06 07:17:59;;;;;;;20.07;14.73;;;16.30;99.90;;;;;;5097382;28;20197;-84
2021/09/06 07:20:27;;;;;;;22.70;16.03;;;16.60;99.90;;;;;;5081705;28;20433;-86
2021/09/06 07:22:53;;;;;;;21.03;16.30;;;16.80;99.90;;;;;;5063944;28;20456;-86
2021/09/06 07:25:19;;;;;;;28.20;13.30;;;16.90;99.90;;;;;;5051337;28;20418;-86
2021/09/06 07:27:45;;;;;;;19.63;16.43;;;17.10;99.90;;;;;;5067411;28;20182;-86
2021/09/06 07:30:11;;;;;;;22.87;16.07;;;17.10;99.90;;;;;;5067813;28;20182;-86
2021/09/06 07:32:37;;;;;;;29.83;16.37;;;16.90;99.90;;;;;;5086088;28;20544;-85
2021/09/06 07:35:04;;;;;;;27.50;15.23;;;16.90;99.90;;;;;;5097278;28;20475;-84
2021/09/06 07:37:30;;;;;;;24.73;16.60;;;17.00;99.90;;;;;;5089146;28;20199;-84
2021/09/06 07:39:57;;;;;;;25.40;14.50;;;17.20;99.90;;;;;;5067846;28;20437;-86
2021/09/06 07:42:24;;;;;;;23.03;15.53;;;17.20;99.90;;;;;;5082929;28;20423;-85
2021/09/06 07:44:50;;;;;;;24.50;16.83;;;17.50;99.90;;;;;;5088642;28;20198;-84
2021/09/06 07:47:16;;;;;;;19.47;15.33;;;17.70;99.90;;;;;;5079914;28;20405;-86
2021/09/06 07:49:44;;;;;;;19.13;14.40;;;17.60;99.90;;;;;;5100141;28;20493;-86
2021/09/06 07:52:10;;;;;;;20.53;15.70;;;17.90;99.90;;;;;;5100010;28;20426;-86
2021/09/06 07:54:36;;;;;;;19.33;14.80;;;17.70;99.90;;;;;;5098326;28;20874;-86
2021/09/06 07:57:02;;;;;;;21.00;15.70;;;17.80;99.90;;;;;;5091550;28;20305;-86
2021/09/06 07:59:28;;;;;;;20.80;15.67;;;18.00;99.90;;;;;;5080902;28;20178;-85
2021/09/06 08:01:54;;;;;;;17.43;14.83;;;18.20;99.90;;;;;;5090482;28;20413;-85
2021/09/06 08:04:19;;;;;;;19.63;14.60;;;18.10;99.90;;;;;;5085920;28;20174;-85
2021/09/06 08:06:45;;;;;;;16.20;12.67;;;17.90;99.90;;;;;;5093599;28;20275;-86
2021/09/06 08:09:12;;;;;;;17.33;13.27;;;18.20;99.90;;;;;;5079573;28;20206;-86
2021/09/06 08:11:38;;;;;;;15.27;13.20;;;18.60;99.90;;;;;;5084861;28;20423;-86
2021/09/06 08:14:05;;;;;;;12.70;10.50;;;18.60;99.90;;;;;;5099795;28;20392;-86
2021/09/06 08:16:32;;;;;;;11.70;10.50;;;18.70;99.90;;;;;;5063779;28;20756;-86
2021/09/06 08:18:58;;;;;;;20.70;12.97;;;18.70;99.90;;;;;;5098356;28;20515;-86
2021/09/06 08:21:24;;;;;;;18.27;12.13;;;18.70;99.90;;;;;;5072078;28;20429;-86
2021/09/06 08:23:50;;;;;;;12.97;11.67;;;18.70;99.90;;;;;;5088093;28;20437;-86
2021/09/06 08:26:16;;;;;;;13.63;10.97;;;19.10;99.90;;;;;;5098086;28;20408;-85
2021/09/06 08:28:42;;;;;;;12.13;9.17;;;19.00;99.90;;;;;;5064466;28;20497;-85
2021/09/06 08:31:08;;;;;;;14.40;11.23;;;19.20;99.90;;;;;;5087233;28;20213;-85
2021/09/06 08:33:34;;;;;;;14.50;12.97;;;19.20;99.90;;;;;;5089656;28;20206;-85
2021/09/06 08:36:02;;;;;;;19.43;11.53;;;19.40;99.90;;;;;;5067089;28;20595;-86
2021/09/06 08:38:28;;;;;;;13.83;11.03;;;19.30;99.90;;;;;;5096783;28;20309;-85
2021/09/06 08:40:55;;;;;;;11.27;10.10;;;19.40;99.90;;;;;;5092622;28;20622;-86
2021/09/06 08:43:21;;;;;;;15.03;10.67;;;19.50;99.90;;;;;;5095914;28;20446;-86
2021/09/06 08:45:47;;;;;;;11.10;10.00;;;19.40;99.90;;;;;;5094063;28;20796;-86
2021/09/06 08:48:16;;;;;;;17.57;10.60;;;19.40;99.90;;;;;;5091673;28;20658;-84
2021/09/06 08:50:42;;;;;;;12.90;11.60;;;19.60;99.90;;;;;;5083727;28;20417;-85
2021/09/06 08:53:09;;;;;;;13.10;10.93;;;19.60;99.90;;;;;;5091292;28;20421;-86
2021/09/06 08:55:39;;;;;;;19.13;9.37;;;19.80;99.90;;;;;;5086807;28;20389;-85
2021/09/06 08:58:05;;;;;;;13.57;11.10;;;20.00;99.90;;;;;;5102173;28;20549;-85
2021/09/06 09:00:32;;;;;;;11.20;9.57;;;20.30;99.90;;;;;;5080219;28;20436;-85
2021/09/06 09:03:02;;;;;;;11.73;8.80;;;20.10;99.90;;;;;;5095439;28;20441;-85
2021/09/06 09:05:28;;;;;;;12.30;10.63;;;20.30;99.90;;;;;;5034001;28;20516;-85
2021/09/06 09:07:57;;;;;;;13.70;11.80;;;20.80;99.90;;;;;;5081618;28;20413;-84
2021/09/06 09:10:28;;;;;;;13.13;9.63;;;20.90;99.90;;;;;;5080680;28;20894;-85
2021/09/06 09:13:06;;;;;;;12.93;9.60;;;21.30;99.90;;;;;;5078648;28;20425;-86
2021/09/06 09:15:33;;;;;;;11.00;9.90;;;21.00;99.90;;;;;;5091912;28;20464;-84
2021/09/06 09:18:00;;;;;;;13.33;10.17;;;21.10;99.90;;;;;;5064273;28;20456;-85
2021/09/06 09:20:37;;;;;;;13.57;11.70;;;21.10;99.90;;;;;;5057858;28;20435;-86
2021/09/06 09:23:04;;;;;;;12.07;9.50;;;21.40;99.90;;;;;;5088788;28;20417;-84
2021/09/06 09:25:31;;;;;;;12.43;10.70;;;21.60;99.90;;;;;;5082142;28;20508;-84
2021/09/06 09:27:57;;;;;;;20.20;10.00;;;21.70;99.90;;;;;;5071887;28;20429;-84
2021/09/06 09:30:25;;;;;;;12.77;9.40;;;21.70;99.90;;;;;;5094340;28;20449;-84
2021/09/06 09:33:04;;;;;;;11.53;10.43;;;22.00;99.90;;;;;;5071858;28;20421;-84
2021/09/06 09:35:31;;;;;;;11.10;9.83;;;22.00;99.90;;;;;;5086301;28;20472;-85
2021/09/06 09:38:07;;;;;;;9.00;8.20;;;22.60;99.90;;;;;;5084107;28;20567;-84
2021/09/06 09:40:37;;;;;;;10.03;8.93;;;23.00;99.90;;;;;;5075025;28;20421;-86
2021/09/06 09:43:03;;;;;;;9.27;8.30;;;22.60;99.90;;;;;;5084658;28;20417;-86
2021/09/06 09:45:30;;;;;;;9.77;8.37;;;22.70;99.90;;;;;;5069542;28;20421;-86
2021/09/06 09:47:58;;;;;;;11.60;9.07;;;22.80;99.90;;;;;;5077533;28;20420;-85
2021/09/06 09:50:26;;;;;;;9.00;7.97;;;23.50;99.90;;;;;;5068810;28;20422;-84
2021/09/06 09:52:55;;;;;;;9.80;8.80;;;24.00;99.90;;;;;;5088730;28;20416;-85
2021/09/06 09:55:25;;;;;;;9.53;8.63;;;23.80;99.90;;;;;;5069514;28;20529;-84
2021/09/06 09:57:51;;;;;;;9.50;7.90;;;23.60;99.90;;;;;;5085332;28;20499;-85
2021/09/06 10:00:17;;;;;;;8.93;8.10;;;23.50;99.90;;;;;;5073744;28;20410;-85
2021/09/06 10:02:48;;;;;;;7.10;6.40;;;23.80;99.90;;;;;;5061714;28;20455;-84
2021/09/06 10:05:14;;;;;;;8.73;7.83;;;24.30;99.90;;;;;;5092176;28;20436;-86
2021/09/06 10:07:46;;;;;;;9.30;8.40;;;24.70;99.90;;;;;;5085724;28;20424;-85
2021/09/06 10:10:18;;;;;;;10.33;8.07;;;23.70;99.90;;;;;;5045461;28;20402;-85
2021/09/06 10:12:45;;;;;;;8.40;7.63;;;24.40;99.90;;;;;;5081291;28;20483;-85
2021/09/06 10:15:11;;;;;;;7.80;7.00;;;25.10;99.90;;;;;;5066827;28;20923;-85
2021/09/06 10:17:51;;;;;;;8.13;7.30;;;25.60;99.90;;;;;;5085911;28;20468;-85
2021/09/06 10:20:21;;;;;;;9.33;7.43;;;25.90;99.90;;;;;;5076983;28;20178;-85
2021/09/06 10:23:06;;;;;;;9.00;8.00;;;25.00;99.90;;;;;;5096242;28;20421;-85
2021/09/06 10:25:36;;;;;;;9.33;8.10;;;25.50;99.90;;;;;;5082078;28;20447;-85
2021/09/06 10:28:05;;;;;;;9.77;7.73;;;26.20;99.90;;;;;;5018557;28;20515;-85
2021/09/06 10:30:51;;;;;;;8.17;7.37;;;26.50;99.90;;;;;;5088816;28;20429;-85
2021/09/06 10:33:34;;;;;;;9.47;8.57;;;27.00;99.90;;;;;;5069847;28;20559;-86
2021/09/06 10:36:03;;;;;;;9.80;7.73;;;26.20;99.90;;;;;;5062469;28;20428;-85
2021/09/06 10:38:40;;;;;;;7.20;6.33;;;26.50;99.90;;;;;;5081848;28;20542;-85
2021/09/06 10:41:09;;;;;;;9.27;8.37;;;26.40;99.90;;;;;;5093256;28;20409;-85
2021/09/06 10:43:48;;;;;;;9.50;8.50;;;25.90;99.90;;;;;;5097404;28;20422;-85
2021/09/06 10:46:14;;;;;;;9.43;8.50;;;26.30;99.90;;;;;;5067317;28;20764;-85
2021/09/06 10:48:40;;;;;;;8.47;7.67;;;25.60;99.90;;;;;;5052030;28;20427;-85
2021/09/06 10:51:06;;;;;;;9.27;8.33;;;26.60;99.90;;;;;;5082116;28;20455;-86
2021/09/06 10:53:32;;;;;;;8.70;8.00;;;27.70;99.90;;;;;;5087471;28;20496;-85
2021/09/06 10:55:59;;;;;;;10.07;8.20;;;27.50;99.90;;;;;;5069881;28;20436;-86
2021/09/06 10:58:27;;;;;;;8.03;7.33;;;26.90;99.90;;;;;;5066535;28;20455;-85
2021/09/06 11:00:55;;;;;;;8.00;7.20;;;26.80;99.90;;;;;;5081945;28;20409;-85
2021/09/06 11:03:27;;;;;;;8.50;7.67;;;28.20;99.90;;;;;;5088956;28;20486;-86
2021/09/06 11:05:56;;;;;;;8.23;7.43;;;28.80;99.90;;;;;;5094984;28;20420;-85
2021/09/06 11:08:26;;;;;;;8.03;7.33;;;29.30;99.90;;;;;;5102772;28;20431;-85
2021/09/06 11:10:56;;;;;;;9.70;7.43;;;29.50;99.90;;;;;;5103764;28;20185;-85
2021/09/06 11:13:32;;;;;;;8.43;7.55;;;30.00;99.90;;;;;;5102939;28;20158;-85
2021/09/06 11:15:58;;;;;;;8.60;7.57;;;30.20;99.90;;;;;;5103014;28;20158;-85
2021/09/06 11:18:29;;;;;;;8.40;7.70;;;29.90;97.60;;;;;;5085371;28;20234;-86
2021/09/06 11:20:55;;;;;;;8.30;7.53;;;29.00;97.90;;;;;;5084793;28;20582;-85
2021/09/06 11:23:32;;;;;;;7.57;6.93;;;30.10;97.80;;;;;;5022638;28;20175;-85
2021/09/06 11:25:59;;;;;;;8.52;7.72;;;30.80;95.70;;;;;;5023285;28;20183;-86
2021/09/06 11:28:25;;;;;;;8.00;7.30;;;31.20;95.10;;;;;;5003020;28;20208;-86
2021/09/06 11:30:51;;;;;;;7.93;7.13;;;31.10;94.30;;;;;;5014769;28;20228;-86
2021/09/06 11:33:17;;;;;;;7.68;6.97;;;31.20;93.90;;;;;;5022140;28;20171;-85
2021/09/06 11:35:45;;;;;;;8.15;7.20;;;31.80;91.40;;;;;;5037882;28;20513;-85
2021/09/06 11:38:12;;;;;;;7.13;6.43;;;29.00;93.00;;;;;;5026563;28;20232;-85
2021/09/06 11:40:39;;;;;;;8.25;7.45;;;28.00;94.70;;;;;;5009695;28;20185;-86
2021/09/06 11:43:07;;;;;;;7.57;6.90;;;28.70;95.20;;;;;;5013768;28;20203;-86
2021/09/06 11:45:34;;;;;;;7.07;6.47;;;30.20;93.20;;;;;;5037444;28;20305;-85
2021/09/06 11:48:05;;;;;;;7.57;6.95;;;31.50;91.80;;;;;;5035835;28;20192;-86
2021/09/06 11:50:37;;;;;;;7.20;6.60;;;32.30;90.40;;;;;;5021138;28;20183;-85
2021/09/06 11:53:06;;;;;;;7.38;6.75;;;32.10;87.80;;;;;;5033561;28;20165;-85
2021/09/06 11:55:33;;;;;;;8.25;7.35;;;31.60;91.00;;;;;;5062195;28;20604;-85
2021/09/06 11:58:08;;;;;;;7.25;6.65;;;29.60;90.30;;;;;;5064787;28;20187;-85
2021/09/06 12:00:36;;;;;;;15.10;8.18;;;30.10;92.10;;;;;;5056211;28;20484;-85
2021/09/06 12:03:07;;;;;;;7.65;7.05;;;30.40;90.80;;;;;;5057697;28;20175;-86
2021/09/06 12:05:42;;;;;;;8.55;6.68;;;31.40;89.40;;;;;;5058386;28;20504;-85
2021/09/06 12:08:12;;;;;;;6.78;5.47;;;32.20;86.30;;;;;;5058989;28;20226;-85
2021/09/06 12:10:39;;;;;;;7.68;6.97;;;33.10;77.90;;;;;;5058997;28;20179;-85
2021/09/06 12:13:08;;;;;;;6.45;5.95;;;33.10;77.60;;;;;;5071501;28;20246;-85
2021/09/06 12:15:38;;;;;;;7.40;6.80;;;32.70;76.60;;;;;;5073857;28;20163;-86
2021/09/06 12:18:08;;;;;;;7.85;5.95;;;33.80;76.10;;;;;;5068526;28;20206;-84
2021/09/06 12:20:38;;;;;;;7.60;7.00;;;33.80;75.00;;;;;;5067404;28;20224;-86
2021/09/06 12:23:06;;;;;;;7.15;6.45;;;34.80;71.30;;;;;;5084038;28;20174;-85
2021/09/06 12:25:32;;;;;;;7.80;7.10;;;33.80;69.80;;;;;;5086185;28;20171;-84
2021/09/06 12:28:06;;;;;;;6.60;5.97;;;31.70;73.10;;;;;;5064299;28;20202;-84
2021/09/06 12:30:32;;;;;;;6.88;6.38;;;31.50;75.00;;;;;;5072517;28;20177;-85
2021/09/06 12:32:58;;;;;;;6.07;5.47;;;33.10;75.50;;;;;;5081426;28;20166;-85
2021/09/06 12:35:25;;;;;;;6.97;6.47;;;33.70;70.90;;;;;;5083027;28;20158;-85